Time;durP1;ratioP1;P1;durP2;ratioP2;P2;SDS_P1;SDS_P2;PMS_P1;PMS_P2;Temp;Humidity;BMP_temperature;BMP_pressure;BME280_temperature;BME280_humidity;BME280_pressure;Samples;Min_cycle;Max_cycle;Signal;HPM_P1;HPM_P2
2020/12/17 00:01:53;;;;;;;10.73;5.65;;;9.70;99.90;;;;;;5112369;28;20539;-59
2020/12/17 00:04:19;;;;;;;7.68;5.78;;;9.70;99.90;;;;;;5117474;28;20412;-59
2020/12/17 00:06:44;;;;;;;11.00;6.00;;;9.70;99.90;;;;;;5113173;27;20026;-60
2020/12/17 00:09:10;;;;;;;6.78;5.88;;;9.70;99.90;;;;;;5107831;28;20023;-60
2020/12/17 00:11:35;;;;;;;12.98;6.22;;;9.70;99.90;;;;;;5114546;27;20054;-60
2020/12/17 00:14:01;;;;;;;10.60;6.20;;;9.60;99.90;;;;;;5115611;27;20511;-59
2020/12/17 00:16:26;;;;;;;9.05;5.60;;;9.70;99.90;;;;;;5113971;27;20031;-59
2020/12/17 00:18:52;;;;;;;8.65;6.30;;;9.70;99.90;;;;;;5091180;28;20040;-60
2020/12/17 00:21:21;;;;;;;10.57;7.10;;;9.70;99.90;;;;;;5113692;27;20035;-58
2020/12/17 00:23:47;;;;;;;9.80;6.00;;;9.60;99.90;;;;;;5112074;27;20494;-59
2020/12/17 00:26:12;;;;;;;9.23;6.75;;;9.70;99.90;;;;;;5096580;28;20043;-59
2020/12/17 00:28:38;;;;;;;8.32;6.15;;;9.70;99.90;;;;;;5114601;27;20047;-59
2020/12/17 00:31:04;;;;;;;9.90;5.78;;;9.70;99.90;;;;;;5110450;28;20032;-60
2020/12/17 00:33:29;;;;;;;10.07;6.43;;;9.70;99.90;;;;;;5115414;28;20024;-59
2020/12/17 00:35:55;;;;;;;8.40;6.20;;;9.80;99.90;;;;;;5109696;28;20085;-59
2020/12/17 00:38:20;;;;;;;7.07;5.53;;;9.70;99.90;;;;;;5111098;28;20084;-60
2020/12/17 00:40:46;;;;;;;8.05;6.00;;;9.70;99.90;;;;;;5104822;28;20103;-59
2020/12/17 00:43:11;;;;;;;7.70;5.63;;;9.70;99.90;;;;;;5110616;28;20062;-60
2020/12/17 00:45:37;;;;;;;9.52;6.30;;;9.70;99.90;;;;;;5108326;28;20031;-60
2020/12/17 00:48:02;;;;;;;6.93;5.10;;;9.70;99.90;;;;;;5111945;28;20032;-60
2020/12/17 00:50:28;;;;;;;8.27;6.28;;;9.70;99.90;;;;;;5109859;28;20430;-58
2020/12/17 00:52:54;;;;;;;8.30;5.82;;;9.70;99.90;;;;;;5110973;28;20464;-59
2020/12/17 00:55:19;;;;;;;9.13;6.38;;;9.70;99.90;;;;;;5090891;28;20493;-57
2020/12/17 00:57:45;;;;;;;10.07;6.00;;;9.70;99.90;;;;;;5105274;28;20413;-59
2020/12/17 01:00:10;;;;;;;7.13;5.90;;;9.70;99.90;;;;;;5110114;28;20423;-59
2020/12/17 01:02:36;;;;;;;9.27;6.50;;;9.70;99.90;;;;;;5087280;28;20469;-59
2020/12/17 01:05:03;;;;;;;10.10;6.57;;;9.70;99.90;;;;;;5106100;28;20653;-58
2020/12/17 01:07:29;;;;;;;6.65;5.60;;;9.80;99.90;;;;;;5109828;28;20236;-58
2020/12/17 01:09:54;;;;;;;7.90;5.57;;;9.80;99.90;;;;;;5110269;28;20148;-59
2020/12/17 01:12:20;;;;;;;9.63;5.30;;;9.70;99.90;;;;;;5110641;28;20020;-59
2020/12/17 01:14:46;;;;;;;7.65;5.78;;;9.70;99.90;;;;;;5106292;28;20096;-59
2020/12/17 01:17:13;;;;;;;9.15;6.05;;;9.80;99.90;;;;;;5109784;28;20089;-59
2020/12/17 01:19:38;;;;;;;9.52;5.93;;;9.80;99.90;;;;;;5112815;28;20496;-61
2020/12/17 01:22:04;;;;;;;7.38;5.78;;;9.80;99.90;;;;;;5114204;28;20105;-59
2020/12/17 01:24:30;;;;;;;10.80;6.38;;;9.70;99.90;;;;;;5114240;28;20026;-60
2020/12/17 01:26:56;;;;;;;10.38;6.65;;;9.70;99.90;;;;;;5114835;28;20024;-59
2020/12/17 01:29:22;;;;;;;7.55;6.07;;;9.60;99.90;;;;;;5114278;28;20020;-58
2020/12/17 01:31:47;;;;;;;9.60;5.78;;;9.70;99.90;;;;;;5114139;28;20031;-59
2020/12/17 01:34:13;;;;;;;9.20;5.93;;;9.70;99.90;;;;;;5113484;28;20438;-60
2020/12/17 01:36:38;;;;;;;8.13;6.03;;;9.70;99.90;;;;;;5114500;28;20086;-59
2020/12/17 01:39:04;;;;;;;7.65;6.10;;;9.70;99.90;;;;;;5095678;28;20028;-60
2020/12/17 01:41:30;;;;;;;10.23;6.30;;;9.70;99.90;;;;;;5111964;28;20503;-59
2020/12/17 01:44:00;;;;;;;10.60;6.25;;;9.70;99.90;;;;;;5105787;28;20031;-60
2020/12/17 01:46:26;;;;;;;10.77;7.38;;;9.60;99.90;;;;;;5114290;28;20028;-59
2020/12/17 01:48:52;;;;;;;9.50;6.50;;;9.60;99.90;;;;;;5113800;28;20496;-59
2020/12/17 01:51:18;;;;;;;7.28;6.22;;;9.60;99.90;;;;;;5115014;28;20107;-59
2020/12/17 01:53:43;;;;;;;9.52;7.20;;;9.60;99.90;;;;;;5106693;28;20051;-59
2020/12/17 01:56:19;;;;;;;8.15;6.60;;;9.60;99.90;;;;;;5115706;28;20020;-62
2020/12/17 01:58:53;;;;;;;10.20;6.97;;;9.60;99.90;;;;;;5123407;28;20034;-58
2020/12/17 02:01:20;;;;;;;12.35;7.72;;;9.60;99.90;;;;;;5126770;28;20039;-58
2020/12/17 02:03:45;;;;;;;8.43;6.10;;;9.60;99.90;;;;;;5121341;28;20157;-59
2020/12/17 02:06:11;;;;;;;11.93;7.45;;;9.50;99.90;;;;;;5114532;28;20098;-59
2020/12/17 02:08:39;;;;;;;9.07;6.28;;;9.60;99.90;;;;;;5112663;28;20024;-59
2020/12/17 02:11:09;;;;;;;8.68;6.60;;;9.60;99.90;;;;;;5126636;27;20023;-59
2020/12/17 02:13:36;;;;;;;7.43;6.15;;;9.60;99.90;;;;;;5093672;28;20047;-58
2020/12/17 02:16:03;;;;;;;13.13;7.45;;;9.60;99.90;;;;;;5115442;27;20046;-59
2020/12/17 02:18:29;;;;;;;8.80;6.82;;;9.60;99.90;;;;;;5120245;27;20036;-59
2020/12/17 02:20:55;;;;;;;8.18;6.32;;;9.60;99.90;;;;;;5121865;27;20034;-59
2020/12/17 02:23:22;;;;;;;10.65;6.95;;;9.60;99.90;;;;;;5114472;28;20098;-59
2020/12/17 02:25:48;;;;;;;7.15;5.85;;;9.60;99.90;;;;;;5124266;27;20023;-59
2020/12/17 02:28:15;;;;;;;10.10;6.50;;;9.60;99.90;;;;;;5124208;27;20365;-60
2020/12/17 02:30:41;;;;;;;8.88;6.13;;;9.60;99.90;;;;;;5112074;28;20020;-59
2020/12/17 02:33:07;;;;;;;10.70;6.47;;;9.60;99.90;;;;;;5112548;27;20042;-59
2020/12/17 02:35:32;;;;;;;12.02;6.88;;;9.60;99.90;;;;;;5120439;27;20023;-58
2020/12/17 02:37:58;;;;;;;10.43;7.05;;;9.60;99.90;;;;;;5109703;28;20027;-59
2020/12/17 02:40:24;;;;;;;10.52;6.38;;;9.60;99.90;;;;;;5127672;27;20022;-60
2020/12/17 02:42:49;;;;;;;10.15;7.10;;;9.60;99.90;;;;;;5094407;28;20031;-59
2020/12/17 02:45:15;;;;;;;8.68;6.57;;;9.60;99.90;;;;;;5117070;28;20023;-60
2020/12/17 02:47:40;;;;;;;10.55;5.93;;;9.70;99.90;;;;;;5120571;27;20468;-62
2020/12/17 02:50:06;;;;;;;10.15;6.75;;;9.70;99.90;;;;;;5112630;28;20080;-59
2020/12/17 02:52:31;;;;;;;9.00;6.55;;;9.60;99.90;;;;;;5111040;28;20401;-58
2020/12/17 02:54:57;;;;;;;12.00;6.35;;;9.50;99.90;;;;;;5111374;28;20455;-59
2020/12/17 02:57:22;;;;;;;12.60;6.80;;;9.60;99.90;;;;;;5105945;28;20054;-58
2020/12/17 02:59:48;;;;;;;11.40;6.70;;;9.60;99.90;;;;;;5094100;28;20020;-59
2020/12/17 03:02:13;;;;;;;13.52;8.07;;;9.50;99.90;;;;;;5095919;28;20035;-59
2020/12/17 03:04:39;;;;;;;14.18;8.48;;;9.50;99.90;;;;;;5111941;28;20026;-58
2020/12/17 03:07:05;;;;;;;14.07;8.70;;;9.50;99.90;;;;;;5111997;28;20022;-59
2020/12/17 03:09:30;;;;;;;14.82;9.32;;;9.40;99.90;;;;;;5111373;28;20058;-59
2020/12/17 03:11:56;;;;;;;14.85;10.15;;;9.40;99.90;;;;;;5112046;28;20104;-59
2020/12/17 03:14:21;;;;;;;16.95;9.77;;;9.40;99.90;;;;;;5111666;28;20033;-59
2020/12/17 03:16:47;;;;;;;17.23;10.40;;;9.40;99.90;;;;;;5109149;28;20397;-58
2020/12/17 03:19:12;;;;;;;17.52;10.77;;;9.40;99.90;;;;;;5111155;28;20035;-58
2020/12/17 03:21:38;;;;;;;15.95;11.23;;;9.40;99.90;;;;;;5112504;28;20365;-58
2020/12/17 03:24:04;;;;;;;24.00;13.80;;;9.40;99.90;;;;;;5110263;28;20048;-62
2020/12/17 03:26:29;;;;;;;22.13;12.20;;;9.40;99.90;;;;;;5112583;28;20023;-59
2020/12/17 03:28:55;;;;;;;18.80;12.75;;;9.30;99.90;;;;;;5111826;28;20079;-58
2020/12/17 03:31:20;;;;;;;28.33;13.80;;;9.40;99.90;;;;;;5112343;27;20103;-59
2020/12/17 03:33:46;;;;;;;24.98;13.82;;;9.40;99.90;;;;;;5111587;27;20038;-59
2020/12/17 03:36:11;;;;;;;25.95;14.95;;;9.30;99.90;;;;;;5123667;27;20392;-58
2020/12/17 03:38:37;;;;;;;20.73;13.52;;;9.30;99.90;;;;;;5112509;28;20156;-59
2020/12/17 03:41:03;;;;;;;27.60;13.50;;;9.30;99.90;;;;;;5110840;28;20114;-59
2020/12/17 03:43:29;;;;;;;25.95;15.23;;;9.40;99.90;;;;;;5103272;28;20031;-59
2020/12/17 03:45:54;;;;;;;23.60;14.50;;;9.40;99.90;;;;;;5107676;28;20024;-59
2020/12/17 03:48:20;;;;;;;24.98;13.73;;;9.40;99.90;;;;;;5107252;28;20020;-59
2020/12/17 03:50:45;;;;;;;30.30;14.63;;;9.40;99.90;;;;;;5106911;28;20035;-59
2020/12/17 03:53:11;;;;;;;20.70;13.52;;;9.40;99.90;;;;;;5111271;28;20070;-59
2020/12/17 03:55:36;;;;;;;25.85;15.48;;;9.30;99.90;;;;;;5110988;28;20043;-59
2020/12/17 03:58:02;;;;;;;26.48;15.95;;;9.30;99.90;;;;;;5110881;28;20032;-59
2020/12/17 04:00:27;;;;;;;26.05;15.50;;;9.30;99.90;;;;;;5110152;28;20023;-57
2020/12/17 04:02:53;;;;;;;27.30;15.80;;;9.30;99.90;;;;;;5110913;28;20513;-57
2020/12/17 04:05:18;;;;;;;25.33;16.27;;;9.30;99.90;;;;;;5105779;27;20022;-59
2020/12/17 04:07:44;;;;;;;27.20;16.52;;;9.30;99.90;;;;;;5116620;27;20031;-59
2020/12/17 04:10:09;;;;;;;24.83;15.32;;;9.30;99.90;;;;;;5112257;28;20027;-58
2020/12/17 04:12:35;;;;;;;33.90;17.73;;;9.30;99.90;;;;;;5112458;28;20460;-58
2020/12/17 04:15:00;;;;;;;23.40;15.50;;;9.30;99.90;;;;;;5095471;28;20031;-58
2020/12/17 04:17:26;;;;;;;24.15;15.05;;;9.30;99.90;;;;;;5116097;28;20047;-60
2020/12/17 04:19:51;;;;;;;28.27;16.55;;;9.30;99.90;;;;;;5120282;28;20023;-58
2020/12/17 04:22:17;;;;;;;24.77;15.40;;;9.20;99.90;;;;;;5118996;27;20119;-58
2020/12/17 04:24:47;;;;;;;26.27;16.98;;;9.20;99.90;;;;;;5118444;28;20039;-58
2020/12/17 04:27:13;;;;;;;27.50;16.95;;;9.20;99.90;;;;;;5093358;28;20020;-58
2020/12/17 04:29:39;;;;;;;30.35;17.77;;;9.20;99.90;;;;;;5114460;27;20026;-59
2020/12/17 04:32:05;;;;;;;21.90;15.30;;;9.20;99.90;;;;;;5114519;28;20095;-59
2020/12/17 04:34:31;;;;;;;26.33;16.40;;;9.20;99.90;;;;;;5118285;27;20027;-58
2020/12/17 04:36:57;;;;;;;31.52;18.40;;;9.30;99.90;;;;;;5116154;28;20076;-59
2020/12/17 04:39:22;;;;;;;28.35;16.40;;;9.20;99.90;;;;;;5107063;28;20127;-59
2020/12/17 04:41:50;;;;;;;30.77;17.77;;;9.30;99.90;;;;;;5111498;28;20075;-59
2020/12/17 04:44:15;;;;;;;25.58;16.52;;;9.30;99.90;;;;;;5111081;28;20024;-59
2020/12/17 04:46:42;;;;;;;33.58;19.40;;;9.20;99.90;;;;;;5112192;28;20153;-59
2020/12/17 04:49:11;;;;;;;29.63;17.85;;;9.20;99.90;;;;;;5111514;28;20119;-60
2020/12/17 04:51:38;;;;;;;26.85;18.45;;;9.20;99.90;;;;;;5110514;28;20489;-59
2020/12/17 04:54:04;;;;;;;31.90;19.25;;;9.20;99.90;;;;;;5113328;28;20038;-60
2020/12/17 04:56:37;;;;;;;36.13;21.52;;;9.30;99.90;;;;;;5114230;28;20024;-61
2020/12/17 04:59:04;;;;;;;29.60;19.63;;;9.30;99.90;;;;;;5116152;28;20027;-60
2020/12/17 05:01:32;;;;;;;34.30;20.27;;;9.20;99.90;;;;;;5112190;28;20030;-61
2020/12/17 05:03:58;;;;;;;28.25;18.75;;;9.20;99.90;;;;;;5115511;28;20020;-58
2020/12/17 05:06:25;;;;;;;36.38;20.25;;;9.20;99.90;;;;;;5115798;28;20088;-59
2020/12/17 05:08:51;;;;;;;32.78;20.15;;;9.20;99.90;;;;;;5125959;27;20032;-60
2020/12/17 05:11:18;;;;;;;33.55;18.95;;;9.20;99.90;;;;;;5106849;28;20031;-59
2020/12/17 05:13:45;;;;;;;32.15;19.08;;;9.20;99.90;;;;;;5112149;28;20106;-60
2020/12/17 05:16:10;;;;;;;35.17;19.95;;;9.10;99.90;;;;;;5116466;27;20094;-59
2020/12/17 05:18:37;;;;;;;35.08;20.67;;;9.00;99.90;;;;;;5125271;22;20127;-66
2020/12/17 05:21:03;;;;;;;35.35;20.88;;;9.10;99.90;;;;;;5106160;27;20034;-64
2020/12/17 05:23:30;;;;;;;31.17;19.92;;;9.10;99.90;;;;;;5109922;28;20016;-64
2020/12/17 05:25:56;;;;;;;36.03;19.52;;;9.00;99.90;;;;;;5124107;27;20043;-64
2020/12/17 05:28:26;;;;;;;38.25;22.52;;;9.00;99.90;;;;;;5112052;27;20107;-64
2020/12/17 05:30:51;;;;;;;28.85;18.02;;;8.90;99.90;;;;;;5120418;27;20119;-64
2020/12/17 05:33:17;;;;;;;30.23;17.02;;;9.00;99.90;;;;;;5128693;27;20610;-64
2020/12/17 05:35:42;;;;;;;31.23;18.80;;;9.00;99.90;;;;;;5126811;27;20035;-64
2020/12/17 05:38:10;;;;;;;36.42;20.27;;;9.00;99.90;;;;;;5097493;27;20077;-64
2020/12/17 05:40:41;;;;;;;29.27;19.02;;;9.00;99.90;;;;;;5129055;27;20060;-65
2020/12/17 05:43:08;;;;;;;30.58;18.10;;;9.00;99.90;;;;;;5115245;27;20047;-65
2020/12/17 05:45:34;;;;;;;25.95;16.92;;;8.90;99.90;;;;;;5131282;27;20042;-64
2020/12/17 05:48:16;;;;;;;29.52;19.13;;;8.90;99.90;;;;;;5090126;28;20488;-65
2020/12/17 05:50:59;;;;;;;31.80;18.00;;;9.00;99.90;;;;;;5111694;28;20031;-64
2020/12/17 05:53:29;;;;;;;25.38;16.80;;;8.90;99.90;;;;;;5098801;28;20606;-64
2020/12/17 05:56:04;;;;;;;27.98;16.95;;;9.00;99.90;;;;;;5117435;27;20392;-65
2020/12/17 05:58:44;;;;;;;32.58;17.38;;;9.00;99.90;;;;;;5103483;27;20486;-64
2020/12/17 06:01:13;;;;;;;30.08;17.40;;;8.90;99.90;;;;;;5124711;27;20027;-64
2020/12/17 06:03:40;;;;;;;26.33;15.73;;;8.90;99.90;;;;;;5126816;27;20027;-65
2020/12/17 06:06:07;;;;;;;31.40;16.40;;;8.90;99.90;;;;;;5122913;27;20029;-63
2020/12/17 06:08:35;;;;;;;22.92;13.95;;;8.90;99.90;;;;;;5116858;27;20370;-64
2020/12/17 06:11:06;;;;;;;25.50;15.10;;;9.00;99.90;;;;;;5116301;27;20270;-64
2020/12/17 06:13:43;;;;;;;31.17;18.08;;;9.00;99.90;;;;;;5095126;28;20118;-63
2020/12/17 06:16:10;;;;;;;31.02;17.85;;;9.00;99.90;;;;;;5109264;27;20499;-64
2020/12/17 06:18:58;;;;;;;31.02;19.08;;;9.00;99.90;;;;;;5106176;28;20047;-64
2020/12/17 06:21:27;;;;;;;32.33;18.38;;;9.00;99.90;;;;;;5115699;27;20035;-64
2020/12/17 06:23:57;;;;;;;35.03;19.85;;;9.00;99.90;;;;;;5112366;27;20097;-65
2020/12/17 06:26:24;;;;;;;38.83;20.25;;;9.00;99.90;;;;;;5102413;27;20020;-65
2020/12/17 06:28:51;;;;;;;31.98;19.77;;;9.10;99.90;;;;;;5123838;27;20019;-64
2020/12/17 06:31:20;;;;;;;32.50;20.42;;;9.10;99.90;;;;;;5110690;27;20019;-65
2020/12/17 06:33:46;;;;;;;36.38;22.02;;;9.00;99.90;;;;;;5126753;27;20076;-65
2020/12/17 06:36:25;;;;;;;34.03;20.15;;;9.00;99.90;;;;;;5142205;27;20027;-66
2020/12/17 06:38:50;;;;;;;40.75;21.17;;;9.00;99.90;;;;;;5117714;27;20027;-63
2020/12/17 06:41:22;;;;;;;34.83;20.35;;;9.00;99.90;;;;;;5112147;27;20094;-65
2020/12/17 06:43:48;;;;;;;31.63;20.05;;;9.00;99.90;;;;;;5105412;27;20099;-65
2020/12/17 06:46:42;;;;;;;36.13;20.83;;;9.00;99.90;;;;;;5107676;28;20488;-64
2020/12/17 06:49:08;;;;;;;30.98;19.13;;;9.10;99.90;;;;;;5098309;27;20035;-65
2020/12/17 06:51:39;;;;;;;40.22;21.67;;;9.10;99.90;;;;;;5115243;27;20038;-64
2020/12/17 06:54:17;;;;;;;36.92;21.55;;;9.00;99.90;;;;;;5115333;28;20115;-64
2020/12/17 06:57:02;;;;;;;38.78;21.92;;;9.10;99.90;;;;;;5113784;28;20095;-63
2020/12/17 06:59:28;;;;;;;40.47;22.40;;;9.10;99.90;;;;;;5122956;27;20034;-64
2020/12/17 07:01:53;;;;;;;36.88;21.30;;;9.10;99.90;;;;;;5101629;28;20381;-63
2020/12/17 07:04:39;;;;;;;40.05;22.52;;;9.10;99.90;;;;;;5115566;27;20128;-64
2020/12/17 07:07:19;;;;;;;40.65;22.58;;;9.10;99.90;;;;;;5101411;27;20080;-64
2020/12/17 07:09:50;;;;;;;32.70;21.27;;;9.10;99.90;;;;;;5100711;28;20012;-65
2020/12/17 07:12:34;;;;;;;37.30;21.17;;;9.10;99.90;;;;;;5093826;28;20023;-65
2020/12/17 07:15:25;;;;;;;45.92;23.98;;;9.10;99.90;;;;;;5116594;28;20039;-64
2020/12/17 07:17:51;;;;;;;40.03;22.17;;;9.20;99.90;;;;;;5097998;28;20036;-65
2020/12/17 07:20:29;;;;;;;40.75;22.35;;;9.20;99.90;;;;;;5095642;28;20027;-65
2020/12/17 07:22:57;;;;;;;34.30;20.35;;;9.10;99.90;;;;;;5114914;28;20032;-64
2020/12/17 07:25:37;;;;;;;38.10;22.45;;;9.10;99.90;;;;;;5113560;28;20118;-65
2020/12/17 07:28:03;;;;;;;31.63;20.20;;;9.10;99.90;;;;;;5093601;28;20030;-64
2020/12/17 07:30:29;;;;;;;34.42;20.63;;;9.10;99.90;;;;;;5108827;28;20115;-63
2020/12/17 07:32:55;;;;;;;32.60;19.58;;;9.10;99.90;;;;;;5112985;28;20027;-64
2020/12/17 07:35:24;;;;;;;31.20;18.55;;;9.10;99.90;;;;;;5113669;28;20115;-65
2020/12/17 07:38:00;;;;;;;31.55;18.40;;;9.10;99.90;;;;;;5099735;28;20056;-64
2020/12/17 07:40:30;;;;;;;35.53;18.25;;;9.10;99.90;;;;;;5104229;28;20100;-65
2020/12/17 07:42:59;;;;;;;30.52;18.38;;;9.10;99.90;;;;;;5110299;28;20028;-64
2020/12/17 07:45:48;;;;;;;31.88;17.73;;;9.10;99.90;;;;;;5112835;28;20061;-64
2020/12/17 07:48:38;;;;;;;31.98;17.63;;;9.10;99.90;;;;;;5112050;28;20035;-65
2020/12/17 07:51:13;;;;;;;28.60;17.23;;;9.10;99.90;;;;;;5104268;28;20039;-64
2020/12/17 07:53:39;;;;;;;31.35;17.13;;;9.10;99.90;;;;;;5109775;28;20023;-64
2020/12/17 07:56:06;;;;;;;24.02;15.50;;;9.10;99.90;;;;;;5114113;27;20023;-65
2020/12/17 07:58:32;;;;;;;23.75;15.60;;;9.10;99.90;;;;;;5095129;28;20031;-64
2020/12/17 08:00:58;;;;;;;29.42;14.77;;;9.10;99.90;;;;;;5117100;28;20019;-63
2020/12/17 08:03:24;;;;;;;27.00;15.73;;;9.10;99.90;;;;;;5117716;28;20059;-65
2020/12/17 08:05:51;;;;;;;30.90;16.35;;;9.10;99.90;;;;;;5087712;28;20388;-64
2020/12/17 08:08:18;;;;;;;25.85;15.00;;;9.10;99.90;;;;;;5095101;28;20013;-65
2020/12/17 08:10:45;;;;;;;24.55;15.77;;;9.10;99.90;;;;;;5106809;28;20019;-65
2020/12/17 08:13:11;;;;;;;24.00;14.43;;;9.00;99.90;;;;;;5110232;28;20047;-66
2020/12/17 08:15:37;;;;;;;23.45;13.70;;;9.10;99.90;;;;;;5091020;28;20027;-66
2020/12/17 08:18:04;;;;;;;22.45;14.15;;;9.10;99.90;;;;;;5100667;28;20047;-67
2020/12/17 08:20:31;;;;;;;21.50;12.80;;;9.10;99.90;;;;;;5127343;27;20111;-65
2020/12/17 08:22:56;;;;;;;20.60;12.40;;;9.10;99.90;;;;;;5091216;28;20050;-65
2020/12/17 08:25:24;;;;;;;20.55;11.32;;;9.10;99.90;;;;;;5099983;28;20008;-65
2020/12/17 08:27:52;;;;;;;18.92;11.30;;;9.10;99.90;;;;;;5110975;28;20385;-66
2020/12/17 08:30:22;;;;;;;20.63;11.18;;;9.10;99.90;;;;;;5099593;28;20027;-64
2020/12/17 08:32:49;;;;;;;20.10;11.00;;;9.00;99.90;;;;;;5112059;28;20393;-65
2020/12/17 08:35:22;;;;;;;20.30;10.75;;;9.10;99.90;;;;;;5097919;28;20502;-64
2020/12/17 08:37:50;;;;;;;23.27;10.18;;;9.10;99.90;;;;;;5105300;28;20477;-64
2020/12/17 08:40:22;;;;;;;18.80;9.50;;;9.10;99.90;;;;;;5110264;28;20028;-67
2020/12/17 08:42:52;;;;;;;17.92;9.82;;;9.10;99.90;;;;;;5079754;28;20046;-66
2020/12/17 08:45:19;;;;;;;20.73;9.50;;;9.00;99.90;;;;;;5113548;28;20028;-65
2020/12/17 08:47:49;;;;;;;17.50;9.23;;;9.00;99.90;;;;;;5097465;28;20019;-65
2020/12/17 08:50:15;;;;;;;22.45;10.32;;;9.00;99.90;;;;;;5113503;28;20094;-66
2020/12/17 08:52:42;;;;;;;17.60;10.07;;;9.00;99.90;;;;;;5090439;28;20118;-66
2020/12/17 08:55:09;;;;;;;18.25;9.02;;;9.00;99.90;;;;;;5096954;28;20012;-64
2020/12/17 08:57:36;;;;;;;19.65;8.73;;;9.10;99.90;;;;;;5112282;28;20024;-66
2020/12/17 09:00:03;;;;;;;24.85;9.05;;;9.10;99.90;;;;;;5108982;28;20039;-67
2020/12/17 09:02:29;;;;;;;19.40;8.35;;;9.00;99.90;;;;;;5112267;28;20076;-65
2020/12/17 09:05:01;;;;;;;16.48;8.80;;;9.10;99.90;;;;;;5111198;28;20028;-65
2020/12/17 09:07:27;;;;;;;20.70;8.15;;;9.10;99.90;;;;;;5106981;28;20015;-64
2020/12/17 09:09:54;;;;;;;22.02;8.32;;;9.10;99.90;;;;;;5102213;28;20362;-65
2020/12/17 09:12:28;;;;;;;17.42;8.20;;;9.10;99.90;;;;;;5100564;28;20024;-64
2020/12/17 09:14:54;;;;;;;17.38;7.35;;;9.10;99.90;;;;;;5099677;28;20024;-63
2020/12/17 09:17:20;;;;;;;12.50;6.45;;;9.10;99.90;;;;;;5083761;28;20035;-66
2020/12/17 09:19:47;;;;;;;17.20;8.27;;;9.20;99.90;;;;;;5083677;28;20040;-65
2020/12/17 09:22:20;;;;;;;12.23;6.75;;;9.10;99.90;;;;;;5092763;28;20049;-65
2020/12/17 09:24:54;;;;;;;13.65;7.15;;;9.10;99.90;;;;;;5097226;28;20058;-64
2020/12/17 09:27:28;;;;;;;15.82;6.18;;;9.10;99.90;;;;;;5117410;28;20480;-64
2020/12/17 09:30:19;;;;;;;9.95;6.03;;;9.20;99.90;;;;;;5103476;28;20023;-65
2020/12/17 09:32:52;;;;;;;14.75;7.40;;;9.10;99.90;;;;;;5103338;28;20031;-65
2020/12/17 09:35:19;;;;;;;13.65;6.63;;;9.10;99.90;;;;;;5113798;28;20020;-66
2020/12/17 09:38:19;;;;;;;15.85;6.57;;;9.10;99.90;;;;;;5098746;28;20029;-68
2020/12/17 09:40:45;;;;;;;14.30;6.90;;;9.10;99.90;;;;;;5091106;28;20028;-64
2020/12/17 09:43:13;;;;;;;13.68;7.03;;;9.10;99.90;;;;;;5105672;28;20477;-64
2020/12/17 09:45:41;;;;;;;15.90;7.05;;;9.10;99.90;;;;;;5102864;28;20027;-66
2020/12/17 09:48:27;;;;;;;16.90;6.50;;;9.10;99.90;;;;;;5090694;28;20019;-65
2020/12/17 09:51:00;;;;;;;15.25;6.70;;;9.10;99.90;;;;;;5114172;28;20438;-65
2020/12/17 09:53:26;;;;;;;11.15;6.38;;;9.10;99.90;;;;;;5106369;28;20381;-67
2020/12/17 09:55:52;;;;;;;13.93;6.15;;;9.10;99.90;;;;;;5115278;28;20057;-63
2020/12/17 09:58:18;;;;;;;11.00;6.78;;;9.10;99.90;;;;;;5114106;27;20051;-65
2020/12/17 10:00:43;;;;;;;11.50;6.60;;;9.10;99.90;;;;;;5116309;27;20365;-66
2020/12/17 10:03:10;;;;;;;17.58;7.75;;;9.10;99.90;;;;;;5114009;28;20031;-65
2020/12/17 10:05:35;;;;;;;22.05;7.25;;;9.10;99.90;;;;;;5110299;28;20107;-66
2020/12/17 10:08:01;;;;;;;18.13;6.60;;;9.10;99.90;;;;;;5114174;28;20451;-64
2020/12/17 10:10:29;;;;;;;12.20;5.47;;;9.10;99.90;;;;;;5114407;28;20068;-64
2020/12/17 10:12:58;;;;;;;19.65;6.63;;;9.20;99.90;;;;;;5114972;28;20061;-66
2020/12/17 10:15:24;;;;;;;20.23;6.40;;;9.20;99.90;;;;;;5112969;28;20027;-64
2020/12/17 10:17:50;;;;;;;23.15;7.35;;;9.20;99.90;;;;;;5102318;28;20525;-65
2020/12/17 10:20:15;;;;;;;14.18;6.45;;;9.20;99.90;;;;;;5114322;28;20024;-64
2020/12/17 10:22:41;;;;;;;17.98;6.35;;;9.30;99.90;;;;;;5114092;28;20118;-65
2020/12/17 10:25:07;;;;;;;16.13;6.82;;;9.20;99.90;;;;;;5115272;28;20047;-63
2020/12/17 10:27:33;;;;;;;13.57;5.40;;;9.30;99.90;;;;;;5112598;28;20019;-66
2020/12/17 10:29:59;;;;;;;15.07;6.35;;;9.40;99.90;;;;;;5115171;28;20016;-65
2020/12/17 10:32:24;;;;;;;17.15;6.40;;;9.40;99.90;;;;;;5113945;27;20114;-65
2020/12/17 10:34:50;;;;;;;20.98;6.47;;;9.40;99.90;;;;;;5111940;28;20023;-67
2020/12/17 10:37:16;;;;;;;14.23;6.63;;;9.50;99.90;;;;;;5114511;28;20529;-65
2020/12/17 10:39:42;;;;;;;26.90;7.43;;;9.50;99.90;;;;;;5114631;28;20990;-64
2020/12/17 10:42:08;;;;;;;17.75;6.03;;;9.50;99.90;;;;;;5113929;28;20024;-65
2020/12/17 10:44:36;;;;;;;20.52;6.30;;;9.60;99.90;;;;;;5113961;28;20144;-65
2020/12/17 10:47:06;;;;;;;20.00;6.97;;;9.60;99.90;;;;;;5112918;28;20027;-64
2020/12/17 10:49:32;;;;;;;18.08;5.75;;;9.60;99.90;;;;;;5114264;28;20020;-64
2020/12/17 10:51:58;;;;;;;13.63;6.05;;;9.70;99.90;;;;;;5118412;27;20019;-66
2020/12/17 10:54:23;;;;;;;15.60;5.22;;;9.70;99.90;;;;;;5114613;28;20077;-65
2020/12/17 10:56:49;;;;;;;20.90;6.05;;;9.90;99.90;;;;;;5112360;28;20464;-64
2020/12/17 10:59:15;;;;;;;12.70;5.68;;;10.00;99.90;;;;;;5118242;28;20019;-64
2020/12/17 11:01:41;;;;;;;10.43;4.93;;;10.10;99.90;;;;;;5115332;28;20019;-67
2020/12/17 11:04:07;;;;;;;10.75;5.70;;;10.00;99.90;;;;;;5092519;28;20023;-64
2020/12/17 11:06:32;;;;;;;15.25;5.38;;;10.00;99.90;;;;;;5098024;28;20480;-66
2020/12/17 11:08:58;;;;;;;22.35;6.40;;;10.00;99.90;;;;;;5098005;27;20041;-63
2020/12/17 11:11:23;;;;;;;14.68;6.22;;;10.00;99.90;;;;;;5109493;28;20197;-64
2020/12/17 11:13:50;;;;;;;16.70;5.95;;;10.00;99.90;;;;;;5111244;28;20027;-64
2020/12/17 11:16:17;;;;;;;14.30;5.53;;;9.90;99.90;;;;;;5111543;28;20173;-63
2020/12/17 11:18:43;;;;;;;16.10;5.18;;;9.90;99.90;;;;;;5122789;22;20069;-60
2020/12/17 11:21:09;;;;;;;23.40;6.22;;;9.90;99.90;;;;;;5091802;28;20588;-60
2020/12/17 11:23:35;;;;;;;14.82;5.38;;;9.90;99.90;;;;;;5096571;28;20023;-59
2020/12/17 11:26:03;;;;;;;15.23;5.15;;;9.90;99.90;;;;;;5092494;28;20028;-60
2020/12/17 11:28:29;;;;;;;13.13;5.10;;;9.90;99.90;;;;;;5091381;28;20437;-60
2020/12/17 11:30:54;;;;;;;19.10;5.53;;;9.90;99.90;;;;;;5091882;28;20083;-60
2020/12/17 11:33:19;;;;;;;12.85;5.72;;;9.90;99.90;;;;;;5088819;28;20059;-59
2020/12/17 11:35:45;;;;;;;15.07;6.18;;;10.00;99.90;;;;;;5089989;28;20085;-60
2020/12/17 11:38:14;;;;;;;19.67;5.57;;;9.90;99.90;;;;;;5091036;28;20028;-61
2020/12/17 11:40:40;;;;;;;18.60;5.60;;;9.90;99.90;;;;;;5088999;28;20400;-59
2020/12/17 11:43:05;;;;;;;23.40;6.22;;;9.90;99.90;;;;;;5079554;28;20032;-59
2020/12/17 11:45:31;;;;;;;22.10;6.70;;;9.90;99.90;;;;;;5090803;28;20028;-59
2020/12/17 11:47:57;;;;;;;19.92;7.35;;;9.90;99.90;;;;;;5079207;28;20393;-59
2020/12/17 11:50:23;;;;;;;23.17;6.32;;;9.80;99.90;;;;;;5100837;28;20099;-59
2020/12/17 11:52:48;;;;;;;22.63;7.00;;;9.90;99.90;;;;;;5091246;28;20059;-60
2020/12/17 11:55:14;;;;;;;14.85;6.25;;;9.80;99.90;;;;;;5096529;28;20603;-59
2020/12/17 11:57:40;;;;;;;13.98;5.63;;;9.90;99.90;;;;;;5098316;28;20035;-59
2020/12/17 12:00:08;;;;;;;17.55;5.30;;;9.90;99.90;;;;;;5093495;28;20028;-60
2020/12/17 12:02:34;;;;;;;15.43;5.65;;;10.00;99.90;;;;;;5092150;28;20038;-59
2020/12/17 12:05:00;;;;;;;20.73;6.10;;;10.00;99.90;;;;;;5092067;28;20024;-60
2020/12/17 12:07:26;;;;;;;19.42;5.78;;;10.00;99.90;;;;;;5086708;28;20073;-60
2020/12/17 12:09:52;;;;;;;11.98;4.95;;;9.90;99.90;;;;;;5066402;28;20452;-60
2020/12/17 12:12:18;;;;;;;15.80;5.72;;;10.00;99.90;;;;;;5079336;28;20024;-60
2020/12/17 12:14:43;;;;;;;13.57;5.45;;;10.00;99.90;;;;;;5092108;28;20095;-60
2020/12/17 12:17:09;;;;;;;18.17;5.18;;;10.10;99.90;;;;;;5090643;28;20077;-61
2020/12/17 12:19:35;;;;;;;15.88;4.80;;;10.00;99.90;;;;;;5088569;28;20060;-60
2020/12/17 12:22:00;;;;;;;13.23;4.57;;;10.10;99.90;;;;;;5088194;28;20081;-60
2020/12/17 12:24:26;;;;;;;20.13;5.70;;;10.10;99.90;;;;;;5080381;28;20566;-64
2020/12/17 12:26:52;;;;;;;13.98;5.45;;;10.20;99.90;;;;;;5060129;28;20052;-60
2020/12/17 12:29:18;;;;;;;23.30;4.97;;;10.20;99.90;;;;;;5072116;28;20051;-59
2020/12/17 12:31:43;;;;;;;20.15;4.75;;;10.20;99.90;;;;;;5072418;28;20470;-60
2020/12/17 12:34:09;;;;;;;15.68;4.35;;;10.20;99.90;;;;;;5072440;28;20032;-63
2020/12/17 12:36:35;;;;;;;11.73;4.20;;;10.20;99.90;;;;;;5065577;28;20029;-62
2020/12/17 12:39:00;;;;;;;17.63;4.47;;;10.20;99.90;;;;;;5080223;28;20032;-61
2020/12/17 12:41:26;;;;;;;9.40;3.78;;;10.40;99.90;;;;;;5071134;28;20066;-59
2020/12/17 12:43:51;;;;;;;15.85;4.63;;;10.70;99.90;;;;;;5075173;28;20024;-60
2020/12/17 12:46:20;;;;;;;11.52;4.85;;;10.90;99.90;;;;;;5073302;28;20039;-60